Time;durP1;ratioP1;P1;durP2;ratioP2;P2;SDS_P1;SDS_P2;PMS_P1;PMS_P2;Temp;Humidity;BMP_temperature;BMP_pressure;BME280_temperature;BME280_humidity;BME280_pressure;Samples;Min_cycle;Max_cycle;Signal;HPM_P1;HPM_P2
2021/03/05 00:01:10;;;;;;;15.05;3.28;;;2.50;99.90;;;;;;5094920;28;20055;-58
2021/03/05 00:03:35;;;;;;;21.63;3.38;;;2.40;99.90;;;;;;5094941;28;20028;-58
2021/03/05 00:06:01;;;;;;;11.60;3.03;;;2.50;99.90;;;;;;5095253;28;20055;-58
2021/03/05 00:08:27;;;;;;;15.05;2.85;;;2.40;99.90;;;;;;5095310;28;20389;-58
2021/03/05 00:10:53;;;;;;;24.20;3.42;;;2.40;99.90;;;;;;5094948;28;20125;-58
2021/03/05 00:13:21;;;;;;;16.38;3.55;;;2.50;99.90;;;;;;5094981;28;20055;-58
2021/03/05 00:15:47;;;;;;;12.02;3.22;;;2.40;99.90;;;;;;5094669;28;20043;-58
2021/03/05 00:18:13;;;;;;;13.43;2.60;;;2.40;99.90;;;;;;5094399;28;20048;-58
2021/03/05 00:20:51;;;;;;;14.05;3.45;;;2.40;99.90;;;;;;5094954;28;20591;-58
2021/03/05 00:23:17;;;;;;;9.00;2.55;;;2.40;99.90;;;;;;5094771;28;20083;-58
2021/03/05 00:25:43;;;;;;;14.88;3.10;;;2.50;99.90;;;;;;5094780;28;20086;-58
2021/03/05 00:28:10;;;;;;;25.55;3.10;;;2.50;99.90;;;;;;5094124;28;20060;-58
2021/03/05 00:30:35;;;;;;;16.17;2.60;;;2.50;99.90;;;;;;5094638;28;20121;-58
2021/03/05 00:33:03;;;;;;;13.32;2.83;;;2.50;99.90;;;;;;5094769;28;20417;-58
2021/03/05 00:35:28;;;;;;;17.00;3.22;;;2.50;99.90;;;;;;5094138;28;20454;-58
2021/03/05 00:37:54;;;;;;;12.15;2.65;;;2.50;99.90;;;;;;5076234;28;20070;-58
2021/03/05 00:40:22;;;;;;;19.65;4.53;;;2.40;99.90;;;;;;5094575;28;20128;-58
2021/03/05 00:42:48;;;;;;;19.02;3.17;;;2.50;99.90;;;;;;5094193;28;20495;-58
2021/03/05 00:45:18;;;;;;;15.30;2.80;;;2.40;99.90;;;;;;5094366;28;20109;-58
2021/03/05 00:47:44;;;;;;;16.48;2.97;;;2.50;99.90;;;;;;5094111;28;20044;-58
2021/03/05 00:50:12;;;;;;;18.58;4.72;;;2.50;99.90;;;;;;5094016;28;20081;-58
2021/03/05 00:52:38;;;;;;;10.65;3.45;;;2.50;99.90;;;;;;5093873;28;20036;-58
2021/03/05 00:55:06;;;;;;;17.40;3.35;;;2.50;99.90;;;;;;5094090;28;20051;-58
2021/03/05 00:57:32;;;;;;;9.65;2.15;;;2.50;99.90;;;;;;5093844;28;20055;-58
2021/03/05 00:59:57;;;;;;;19.40;3.58;;;2.50;99.90;;;;;;5094237;28;20040;-58
2021/03/05 01:02:23;;;;;;;13.95;2.83;;;2.50;99.90;;;;;;5094273;28;20051;-58
2021/03/05 01:04:49;;;;;;;13.77;2.80;;;2.40;99.90;;;;;;5093896;28;20542;-58
2021/03/05 01:07:16;;;;;;;9.85;3.20;;;2.40;99.90;;;;;;5093951;28;20047;-58
2021/03/05 01:09:42;;;;;;;15.68;3.33;;;2.40;99.90;;;;;;5094039;28;20040;-58
2021/03/05 01:12:08;;;;;;;14.98;3.03;;;2.40;99.90;;;;;;5093306;28;20035;-58
2021/03/05 01:14:34;;;;;;;10.30;3.47;;;2.40;99.90;;;;;;5093236;28;20043;-58
2021/03/05 01:17:00;;;;;;;11.45;2.60;;;2.40;99.90;;;;;;5093402;28;20081;-58
2021/03/05 01:19:27;;;;;;;8.93;2.10;;;2.30;99.90;;;;;;5093510;28;20423;-58
2021/03/05 01:21:53;;;;;;;11.50;3.00;;;2.30;99.90;;;;;;5093340;28;20553;-58
2021/03/05 01:24:20;;;;;;;6.38;2.10;;;2.30;99.90;;;;;;5093199;28;20497;-58
2021/03/05 01:26:46;;;;;;;11.15;2.97;;;2.30;99.90;;;;;;5093548;28;20123;-58
2021/03/05 01:29:12;;;;;;;6.97;2.75;;;2.40;99.90;;;;;;5093035;28;20445;-58
2021/03/05 01:31:38;;;;;;;11.68;2.40;;;2.30;99.90;;;;;;5093414;28;20044;-58
2021/03/05 01:34:05;;;;;;;10.55;2.60;;;2.30;99.90;;;;;;5093211;28;20042;-58
2021/03/05 01:36:31;;;;;;;9.45;2.80;;;2.30;99.90;;;;;;5093050;28;20036;-58
2021/03/05 01:38:56;;;;;;;5.50;2.65;;;2.20;99.90;;;;;;5093168;28;20044;-58
2021/03/05 01:41:22;;;;;;;6.43;2.05;;;2.20;99.90;;;;;;5093210;28;20083;-58
2021/03/05 01:43:48;;;;;;;10.55;2.38;;;2.20;99.90;;;;;;5093151;28;20047;-58
2021/03/05 01:46:16;;;;;;;9.07;2.17;;;2.20;99.90;;;;;;5092858;28;20122;-58
2021/03/05 01:48:42;;;;;;;5.47;2.13;;;2.20;99.90;;;;;;5092845;28;20051;-58
2021/03/05 01:51:11;;;;;;;6.35;1.83;;;2.20;99.90;;;;;;5093066;28;20055;-58
2021/03/05 01:53:37;;;;;;;9.85;1.85;;;2.20;99.90;;;;;;5093345;28;20067;-58
2021/03/05 01:56:04;;;;;;;6.78;2.00;;;2.30;99.90;;;;;;5092679;28;20064;-58
2021/03/05 01:58:30;;;;;;;6.55;2.35;;;2.30;99.90;;;;;;5092915;28;20050;-58
2021/03/05 02:01:09;;;;;;;7.15;2.17;;;2.40;99.90;;;;;;5092869;28;20135;-58
2021/03/05 02:03:36;;;;;;;5.50;1.90;;;2.40;99.90;;;;;;5092655;28;20085;-58
2021/03/05 02:06:03;;;;;;;9.32;2.08;;;2.40;99.90;;;;;;5092676;28;20052;-58
2021/03/05 02:08:31;;;;;;;7.85;1.95;;;2.50;99.90;;;;;;5092733;28;20522;-58
2021/03/05 02:10:57;;;;;;;3.78;1.90;;;2.40;99.90;;;;;;5092953;28;20050;-58
2021/03/05 02:13:23;;;;;;;6.93;2.03;;;2.40;99.90;;;;;;5092754;28;20392;-58
2021/03/05 02:15:51;;;;;;;5.97;1.60;;;2.50;99.90;;;;;;5092334;28;20132;-58
2021/03/05 02:18:32;;;;;;;3.05;1.73;;;2.50;99.90;;;;;;5092757;28;20075;-58
2021/03/05 02:21:24;;;;;;;11.25;2.50;;;2.60;99.90;;;;;;5092570;28;20126;-58
2021/03/05 02:24:16;;;;;;;6.63;1.60;;;2.50;99.90;;;;;;5092268;28;20086;-58
2021/03/05 02:27:20;;;;;;;5.82;1.85;;;2.50;99.50;;;;;;5092606;28;20043;-58
2021/03/05 02:30:20;;;;;;;10.35;1.70;;;2.50;99.90;;;;;;5074652;28;20397;-58
2021/03/05 02:32:55;;;;;;;5.78;1.70;;;2.50;99.90;;;;;;5092363;28;20553;-58
2021/03/05 02:35:26;;;;;;;10.55;2.78;;;2.60;99.90;;;;;;5092343;28;20040;-58
2021/03/05 02:37:53;;;;;;;9.02;1.60;;;2.60;99.90;;;;;;5092191;28;20498;-58
2021/03/05 02:40:25;;;;;;;9.27;1.63;;;2.60;99.90;;;;;;5092205;28;20115;-58
2021/03/05 02:42:58;;;;;;;13.20;2.55;;;2.50;99.90;;;;;;5092189;28;20036;-58
2021/03/05 02:45:30;;;;;;;7.75;2.20;;;2.50;99.90;;;;;;5092403;28;20051;-58
2021/03/05 02:48:02;;;;;;;10.10;2.15;;;2.50;99.90;;;;;;5092116;28;20044;-58
2021/03/05 02:50:30;;;;;;;9.25;1.60;;;2.50;99.90;;;;;;5092057;28;20047;-58
2021/03/05 02:53:00;;;;;;;10.95;2.20;;;2.50;99.90;;;;;;5092194;28;20484;-58
2021/03/05 02:55:27;;;;;;;10.95;1.48;;;2.50;99.90;;;;;;5092296;28;20055;-58
2021/03/05 02:57:56;;;;;;;6.13;1.13;;;2.50;99.90;;;;;;5092396;28;20051;-58
2021/03/05 03:00:24;;;;;;;10.23;1.50;;;2.50;99.90;;;;;;5092012;28;20131;-58
2021/03/05 03:02:53;;;;;;;10.63;2.47;;;2.40;99.90;;;;;;5092359;28;20149;-58
2021/03/05 03:05:19;;;;;;;;;;;2.40;99.90;;;;;;5092642;28;20043;-57
2021/03/05 03:07:45;;;;;;;8.93;1.75;;;2.40;99.90;;;;;;5092382;28;20368;-58
2021/03/05 03:10:12;;;;;;;8.95;1.75;;;2.40;99.90;;;;;;5092129;28;20036;-58
2021/03/05 03:12:39;;;;;;;8.85;1.42;;;2.40;99.90;;;;;;5091974;28;20050;-58
2021/03/05 03:15:11;;;;;;;9.07;1.60;;;2.30;99.90;;;;;;5091819;28;20477;-58
2021/03/05 03:17:40;;;;;;;9.57;1.50;;;2.30;99.90;;;;;;5092183;28;20058;-58
2021/03/05 03:20:06;;;;;;;9.57;1.95;;;2.30;99.90;;;;;;5092205;28;20040;-58
2021/03/05 03:22:32;;;;;;;10.80;1.73;;;2.20;99.90;;;;;;5091940;28;20040;-58
2021/03/05 03:24:58;;;;;;;10.95;1.88;;;2.20;99.90;;;;;;5091615;28;20105;-58
2021/03/05 03:27:25;;;;;;;5.18;1.35;;;2.10;99.90;;;;;;5091466;28;20044;-57
2021/03/05 03:29:51;;;;;;;4.93;1.20;;;2.10;99.90;;;;;;5092376;28;20379;-58
2021/03/05 03:32:17;;;;;;;9.90;1.38;;;2.10;99.90;;;;;;5091904;28;20363;-58
2021/03/05 03:34:43;;;;;;;7.35;1.50;;;2.00;99.70;;;;;;5091571;28;20496;-58
2021/03/05 03:37:12;;;;;;;5.05;1.23;;;2.00;99.90;;;;;;5094726;28;20052;-58
2021/03/05 03:39:39;;;;;;;6.95;1.20;;;1.90;99.30;;;;;;5095659;28;20036;-58
2021/03/05 03:42:05;;;;;;;10.40;1.88;;;1.90;99.10;;;;;;5077500;28;20051;-58
2021/03/05 03:44:31;;;;;;;5.18;1.30;;;1.80;98.90;;;;;;5095340;28;20168;-58
2021/03/05 03:46:58;;;;;;;7.07;1.40;;;1.80;99.00;;;;;;5095658;28;20076;-58
2021/03/05 03:49:26;;;;;;;6.22;1.40;;;1.70;98.70;;;;;;5095257;28;20155;-58
2021/03/05 03:51:58;;;;;;;8.60;1.00;;;1.70;99.20;;;;;;5095102;28;20040;-58
2021/03/05 03:54:25;;;;;;;5.18;1.20;;;1.70;99.00;;;;;;5095308;28;20096;-58
2021/03/05 03:56:53;;;;;;;8.75;1.13;;;1.60;98.40;;;;;;5094798;28;20634;-58
2021/03/05 03:59:20;;;;;;;4.57;1.00;;;1.50;98.80;;;;;;5095221;28;20439;-58
2021/03/05 04:01:47;;;;;;;5.93;1.05;;;1.50;99.40;;;;;;5095203;28;20040;-58
2021/03/05 04:04:16;;;;;;;10.13;1.10;;;1.50;99.70;;;;;;5095217;28;20205;-58
2021/03/05 04:06:49;;;;;;;11.13;1.20;;;1.50;99.90;;;;;;5095241;28;20093;-58
2021/03/05 04:09:17;;;;;;;2.83;0.77;;;1.40;99.70;;;;;;5094916;28;20070;-58
2021/03/05 04:11:43;;;;;;;10.30;1.52;;;1.40;99.50;;;;;;5095314;28;20051;-58
2021/03/05 04:14:09;;;;;;;5.75;1.20;;;1.30;99.90;;;;;;5094946;28;20473;-58
2021/03/05 04:16:36;;;;;;;4.47;1.30;;;1.20;99.70;;;;;;5094710;28;20040;-58
2021/03/05 04:19:04;;;;;;;4.50;1.08;;;1.20;99.90;;;;;;5094780;28;20474;-58
2021/03/05 04:21:35;;;;;;;8.02;1.48;;;1.30;99.90;;;;;;5094619;28;20043;-57
2021/03/05 04:24:01;;;;;;;3.22;1.35;;;1.00;99.90;;;;;;5094539;28;20054;-57
2021/03/05 04:26:27;;;;;;;12.20;2.00;;;1.00;99.90;;;;;;5094702;28;20054;-58
2021/03/05 04:28:55;;;;;;;7.07;1.65;;;0.90;99.90;;;;;;5094410;28;20123;-58
2021/03/05 04:31:20;;;;;;;11.10;1.95;;;0.80;99.90;;;;;;5094831;28;20040;-58
2021/03/05 04:33:46;;;;;;;7.57;1.08;;;0.80;99.90;;;;;;5094704;28;20545;-58
2021/03/05 04:36:12;;;;;;;9.15;1.73;;;0.60;99.90;;;;;;5094820;28;20048;-57
2021/03/05 04:38:37;;;;;;;7.82;1.73;;;0.60;99.90;;;;;;5094432;28;20401;-57
2021/03/05 04:41:03;;;;;;;7.88;1.27;;;0.70;99.90;;;;;;5094400;28;20489;-58
2021/03/05 04:43:29;;;;;;;3.42;1.10;;;0.70;99.90;;;;;;5094436;28;20046;-58
2021/03/05 04:45:54;;;;;;;3.47;0.88;;;0.70;99.80;;;;;;5094167;28;20051;-58
2021/03/05 04:48:20;;;;;;;4.35;1.02;;;0.60;99.90;;;;;;5093453;28;20069;-58
2021/03/05 04:50:46;;;;;;;6.45;1.52;;;0.70;99.90;;;;;;5094233;28;20051;-58
2021/03/05 04:53:12;;;;;;;11.30;1.58;;;0.70;99.90;;;;;;5094381;28;20423;-57
2021/03/05 04:55:40;;;;;;;7.75;1.40;;;0.70;99.90;;;;;;5094325;28;20458;-57
2021/03/05 04:58:05;;;;;;;10.18;1.10;;;0.60;99.90;;;;;;5093864;28;20169;-58
2021/03/05 05:00:31;;;;;;;6.03;1.50;;;0.50;99.90;;;;;;5093798;28;20131;-57
2021/03/05 05:02:57;;;;;;;9.07;1.52;;;0.40;99.90;;;;;;5093833;28;20115;-58
2021/03/05 05:05:23;;;;;;;5.07;0.93;;;0.40;99.90;;;;;;5094128;28;20176;-58
2021/03/05 05:07:49;;;;;;;6.97;1.77;;;0.30;99.90;;;;;;5093558;28;20094;-58
2021/03/05 05:10:14;;;;;;;4.75;1.52;;;0.40;99.90;;;;;;5093555;28;20068;-58
2021/03/05 05:12:40;;;;;;;4.82;1.17;;;0.40;99.90;;;;;;5093658;28;20044;-58
2021/03/05 05:15:07;;;;;;;4.43;1.08;;;0.30;99.90;;;;;;5093537;28;20402;-58
2021/03/05 05:17:33;;;;;;;8.07;1.20;;;0.30;99.90;;;;;;5093562;28;20051;-58
2021/03/05 05:20:00;;;;;;;6.90;1.10;;;0.30;99.90;;;;;;5093417;28;20173;-58
2021/03/05 05:22:26;;;;;;;7.55;1.60;;;0.40;99.90;;;;;;5093526;28;20055;-57
2021/03/05 05:24:52;;;;;;;7.70;2.65;;;0.40;99.90;;;;;;5093569;28;20380;-58
2021/03/05 05:27:18;;;;;;;5.82;1.40;;;0.30;99.90;;;;;;5075593;28;20048;-58
2021/03/05 05:29:44;;;;;;;7.70;1.48;;;0.30;99.90;;;;;;5093032;28;20070;-58
2021/03/05 05:32:10;;;;;;;5.95;1.63;;;0.30;99.90;;;;;;5093218;28;20048;-58
2021/03/05 05:34:35;;;;;;;10.75;1.48;;;0.30;99.50;;;;;;5092957;28;20040;-58
2021/03/05 05:37:01;;;;;;;8.23;1.10;;;0.20;99.30;;;;;;5075392;28;20136;-58
2021/03/05 05:39:27;;;;;;;7.40;1.00;;;0.10;99.70;;;;;;5092890;28;20477;-58
2021/03/05 05:41:54;;;;;;;3.75;0.88;;;0.10;99.90;;;;;;5093297;28;20042;-58
2021/03/05 05:44:20;;;;;;;4.63;1.13;;;0.10;99.90;;;;;;5092776;28;20478;-58
2021/03/05 05:46:47;;;;;;;4.63;0.90;;;0.10;99.50;;;;;;5092875;28;20089;-58
2021/03/05 05:49:15;;;;;;;5.20;1.33;;;0.10;99.30;;;;;;5092873;28;20040;-58
2021/03/05 05:51:43;;;;;;;3.63;0.85;;;0.10;98.60;;;;;;5074906;28;20059;-58
2021/03/05 05:54:15;;;;;;;4.23;0.90;;;0.10;97.90;;;;;;5092892;28;20036;-57
2021/03/05 05:56:43;;;;;;;7.20;1.08;;;0.10;98.00;;;;;;5092787;28;20044;-58
2021/03/05 05:59:10;;;;;;;4.20;0.73;;;0.00;97.90;;;;;;5093055;28;20054;-58
2021/03/05 06:01:37;;;;;;;5.68;1.27;;;0.20;98.80;;;;;;5092833;28;20051;-58
2021/03/05 06:04:04;;;;;;;1.48;0.73;;;0.20;99.90;;;;;;5074366;28;20090;-57
2021/03/05 06:06:31;;;;;;;4.78;1.20;;;0.10;99.90;;;;;;5093052;28;20048;-58
2021/03/05 06:09:01;;;;;;;4.93;1.10;;;0.20;99.90;;;;;;5092702;28;20394;-58
2021/03/05 06:11:37;;;;;;;3.60;1.13;;;0.20;99.90;;;;;;5092462;28;20424;-58
2021/03/05 06:14:11;;;;;;;4.32;0.88;;;-0.10;99.90;;;;;;5092480;28;20473;-58
2021/03/05 06:16:56;;;;;;;5.95;1.10;;;0.00;99.90;;;;;;5092946;28;20040;-58
2021/03/05 06:19:24;;;;;;;7.32;0.90;;;-0.10;99.90;;;;;;5092736;28;20066;-58
2021/03/05 06:21:50;;;;;;;3.25;1.98;;;-0.20;99.60;;;;;;5092563;28;20055;-58
2021/03/05 06:24:17;;;;;;;5.05;0.82;;;-0.20;99.30;;;;;;5092799;28;20039;-58
2021/03/05 06:26:49;;;;;;;4.28;1.35;;;-0.10;99.90;;;;;;5092309;28;20040;-58
2021/03/05 06:29:16;;;;;;;8.70;1.30;;;-0.20;99.90;;;;;;5092162;28;20048;-58
2021/03/05 06:32:00;;;;;;;6.00;1.58;;;-0.20;99.90;;;;;;5092502;28;20052;-57
2021/03/05 06:34:27;;;;;;;5.50;1.30;;;-0.20;99.90;;;;;;5092383;28;20040;-57
2021/03/05 06:37:01;;;;;;;5.00;1.25;;;-0.20;99.90;;;;;;5092148;28;20485;-59
2021/03/05 06:39:28;;;;;;;10.05;1.45;;;-0.20;99.90;;;;;;5092256;28;20075;-58
2021/03/05 06:42:15;;;;;;;4.18;1.00;;;-0.10;99.80;;;;;;5092361;28;20075;-58
2021/03/05 06:44:45;;;;;;;4.78;1.02;;;-0.20;99.90;;;;;;5092249;28;20044;-58
2021/03/05 06:47:15;;;;;;;4.22;1.63;;;0.00;99.90;;;;;;5092194;28;20078;-58
2021/03/05 06:49:43;;;;;;;5.68;1.33;;;0.00;99.90;;;;;;5092626;28;20036;-58
2021/03/05 06:52:13;;;;;;;3.38;1.40;;;0.00;99.90;;;;;;5092480;28;20063;-58
2021/03/05 06:54:40;;;;;;;8.35;1.70;;;0.00;99.90;;;;;;5092298;28;20063;-58
2021/03/05 06:57:07;;;;;;;8.75;1.88;;;0.20;99.90;;;;;;5092315;28;20052;-58
2021/03/05 06:59:44;;;;;;;7.35;2.00;;;0.30;99.90;;;;;;5091993;28;20040;-58
2021/03/05 07:02:14;;;;;;;3.72;1.42;;;0.30;99.90;;;;;;5092598;28;20059;-58
2021/03/05 07:04:49;;;;;;;4.63;1.10;;;0.40;99.90;;;;;;5091968;28;20047;-58
2021/03/05 07:07:16;;;;;;;3.30;1.30;;;0.50;99.90;;;;;;5092136;28;20086;-58
2021/03/05 07:09:44;;;;;;;5.03;1.90;;;0.60;99.90;;;;;;5092080;28;20071;-58
2021/03/05 07:12:14;;;;;;;5.97;1.75;;;0.80;99.90;;;;;;5094906;28;20036;-58
2021/03/05 07:14:42;;;;;;;5.65;1.40;;;1.00;99.90;;;;;;5096145;28;20043;-57
2021/03/05 07:17:09;;;;;;;10.05;2.38;;;1.00;99.90;;;;;;5096182;28;20072;-58
2021/03/05 07:19:37;;;;;;;7.50;1.50;;;1.00;99.90;;;;;;5095828;28;20040;-58
2021/03/05 07:22:05;;;;;;;5.60;1.42;;;1.00;99.90;;;;;;5095683;28;20040;-58
2021/03/05 07:24:33;;;;;;;;;;;1.20;99.90;;;;;;5096006;28;20393;-58
2021/03/05 07:27:02;;;;;;;4.65;1.45;;;1.40;99.90;;;;;;5095810;28;20006;-58
2021/03/05 07:29:32;;;;;;;5.40;1.92;;;1.50;99.70;;;;;;5096100;28;20166;-58
2021/03/05 07:32:08;;;;;;;5.55;1.10;;;1.70;99.50;;;;;;5095536;28;20070;-58
2021/03/05 07:34:48;;;;;;;3.00;0.93;;;2.00;98.40;;;;;;5095298;28;20032;-58
2021/03/05 07:37:16;;;;;;;9.15;1.58;;;2.40;97.80;;;;;;5095708;28;20069;-58
2021/03/05 07:39:45;;;;;;;6.28;1.92;;;2.80;97.70;;;;;;5095581;28;20051;-58
2021/03/05 07:42:12;;;;;;;4.82;1.00;;;3.20;96.20;;;;;;5095505;28;20047;-58
2021/03/05 07:44:38;;;;;;;5.70;1.10;;;3.60;95.30;;;;;;5095670;28;20119;-58
2021/03/05 07:47:10;;;;;;;6.30;1.30;;;3.90;93.80;;;;;;5095345;28;20462;-57
2021/03/05 07:49:37;;;;;;;8.43;1.35;;;4.20;92.50;;;;;;5077452;28;20044;-58
2021/03/05 07:52:03;;;;;;;6.57;0.90;;;4.60;91.80;;;;;;5095204;28;20043;-58
2021/03/05 07:54:45;;;;;;;5.45;0.93;;;5.10;90.00;;;;;;5094827;28;20509;-58
2021/03/05 07:57:14;;;;;;;5.07;1.00;;;5.50;86.80;;;;;;5095012;28;20071;-58
2021/03/05 07:59:40;;;;;;;3.78;1.10;;;5.80;85.00;;;;;;5094959;28;20046;-58
2021/03/05 08:02:09;;;;;;;5.15;1.50;;;6.20;85.60;;;;;;5095117;28;20130;-58
2021/03/05 08:04:48;;;;;;;;;;;6.50;82.10;;;;;;5095295;28;20381;-58
2021/03/05 08:07:14;;;;;;;4.63;1.00;;;6.80;82.00;;;;;;5095060;28;20022;-58
2021/03/05 08:09:41;;;;;;;5.35;1.20;;;7.00;79.50;;;;;;5095011;28;20486;-58
2021/03/05 08:12:36;;;;;;;9.52;0.95;;;7.20;77.20;;;;;;5094878;28;20040;-58
2021/03/05 08:15:07;;;;;;;6.03;1.13;;;7.50;75.80;;;;;;5094611;28;20040;-58
2021/03/05 08:17:40;;;;;;;6.28;1.95;;;7.80;74.00;;;;;;5094982;28;20096;-58
2021/03/05 08:20:09;;;;;;;6.78;1.73;;;8.20;70.20;;;;;;5094956;28;20040;-58
2021/03/05 08:22:57;;;;;;;7.85;1.42;;;8.70;69.60;;;;;;5093133;28;20088;-59
2021/03/05 08:25:38;;;;;;;5.53;1.75;;;9.10;66.50;;;;;;5094497;28;20044;-58
2021/03/05 08:28:06;;;;;;;7.20;1.10;;;9.20;64.30;;;;;;5094344;28;20094;-59
2021/03/05 08:30:34;;;;;;;4.32;1.00;;;9.30;64.30;;;;;;5094708;28;20544;-58
2021/03/05 08:33:07;;;;;;;7.22;1.45;;;9.50;66.00;;;;;;5094445;28;20052;-59
2021/03/05 08:35:34;;;;;;;3.35;1.35;;;9.70;64.60;;;;;;5093871;28;20124;-59
2021/03/05 08:38:06;;;;;;;3.45;1.08;;;9.90;60.30;;;;;;5094475;28;20048;-59
2021/03/05 08:40:44;;;;;;;7.13;1.15;;;9.80;58.30;;;;;;5094223;28;20123;-59
2021/03/05 08:43:10;;;;;;;4.30;1.30;;;10.00;58.70;;;;;;5094220;28;20138;-59
2021/03/05 08:45:41;;;;;;;5.40;0.90;;;10.10;56.80;;;;;;5094436;28;20044;-59
2021/03/05 08:48:07;;;;;;;6.43;0.85;;;10.30;56.80;;;;;;5075518;28;20040;-59
2021/03/05 08:50:38;;;;;;;4.40;0.95;;;10.50;57.70;;;;;;5094302;28;20051;-59
2021/03/05 08:53:06;;;;;;;4.57;0.90;;;10.30;57.00;;;;;;5094037;28;20043;-59
2021/03/05 08:55:33;;;;;;;4.18;1.17;;;10.60;56.30;;;;;;5094050;28;20052;-59
2021/03/05 08:57:59;;;;;;;4.07;1.15;;;10.70;55.90;;;;;;5093927;28;20040;-59
2021/03/05 09:00:30;;;;;;;1.35;0.70;;;11.10;54.20;;;;;;5093663;28;20389;-59
2021/03/05 09:03:14;;;;;;;2.22;0.88;;;11.30;54.10;;;;;;5093817;28;20046;-59
2021/03/05 09:05:43;;;;;;;4.18;0.80;;;11.00;52.00;;;;;;5093708;28;20087;-59
2021/03/05 09:08:10;;;;;;;3.30;1.50;;;10.80;52.80;;;;;;5075048;28;20459;-59
2021/03/05 09:10:50;;;;;;;0.73;0.50;;;10.70;53.30;;;;;;5093523;28;20087;-59
2021/03/05 09:13:17;;;;;;;2.10;0.60;;;11.00;52.10;;;;;;5093343;28;20048;-59
2021/03/05 09:15:48;;;;;;;1.75;0.40;;;11.00;52.00;;;;;;5093063;28;20046;-59
2021/03/05 09:18:28;;;;;;;1.38;0.50;;;10.90;49.30;;;;;;5093243;28;20486;-60
2021/03/05 09:21:03;;;;;;;3.58;1.00;;;10.90;50.30;;;;;;5093429;28;20074;-60
2021/03/05 09:23:40;;;;;;;4.15;0.80;;;10.80;51.90;;;;;;5093188;28;20067;-56
2021/03/05 09:26:08;;;;;;;1.65;0.50;;;10.90;52.10;;;;;;5098658;28;20043;-57
2021/03/05 09:28:38;;;;;;;4.55;1.67;;;11.10;51.60;;;;;;5113204;28;20134;-57
2021/03/05 09:31:04;;;;;;;7.03;3.78;;;10.70;52.10;;;;;;5093865;28;20370;-57
2021/03/05 09:33:36;;;;;;;10.18;5.63;;;11.00;52.00;;;;;;5092865;28;20067;-57
2021/03/05 09:36:09;;;;;;;1.48;0.52;;;11.00;48.70;;;;;;5093549;28;20127;-57
2021/03/05 09:38:36;;;;;;;0.98;0.32;;;10.80;49.20;;;;;;5093031;28;20071;-57
2021/03/05 09:41:32;;;;;;;2.28;0.60;;;10.70;50.90;;;;;;5074917;28;20044;-57
2021/03/05 09:44:06;;;;;;;1.45;0.47;;;10.70;49.60;;;;;;5025397;28;20056;-54
2021/03/05 09:46:38;;;;;;;1.88;1.33;;;10.40;50.00;;;;;;5030375;28;20049;-54
2021/03/05 09:49:29;;;;;;;3.60;0.95;;;10.10;51.50;;;;;;5030370;28;20092;-54
2021/03/05 09:51:55;;;;;;;3.20;1.05;;;10.20;53.60;;;;;;5030655;28;20084;-54
2021/03/05 09:54:40;;;;;;;1.63;0.55;;;10.20;53.80;;;;;;5030349;28;20476;-54
2021/03/05 09:57:07;;;;;;;3.00;0.60;;;10.20;53.50;;;;;;5033719;28;20033;-55
2021/03/05 09:59:43;;;;;;;3.13;0.90;;;10.30;53.10;;;;;;5038771;28;20086;-56
2021/03/05 10:02:09;;;;;;;8.75;0.80;;;10.20;53.30;;;;;;5039407;28;20567;-56
2021/03/05 10:04:42;;;;;;;6.57;0.60;;;10.20;55.90;;;;;;5038888;28;20125;-56
2021/03/05 10:07:08;;;;;;;1.30;0.50;;;10.10;53.50;;;;;;5035190;28;20073;-56
2021/03/05 10:09:34;;;;;;;3.83;0.95;;;10.20;56.40;;;;;;5022817;28;20045;-56
2021/03/05 10:12:00;;;;;;;3.33;1.13;;;10.00;55.80;;;;;;5037663;28;20486;-56
2021/03/05 10:14:32;;;;;;;2.35;0.57;;;9.90;55.70;;;;;;5040299;28;20045;-55
2021/03/05 10:17:15;;;;;;;9.30;1.00;;;10.00;56.00;;;;;;5043106;28;20044;-56
2021/03/05 10:19:43;;;;;;;3.78;0.60;;;9.70;57.20;;;;;;5062709;28;20126;-58
2021/03/05 10:22:09;;;;;;;1.27;0.50;;;9.80;57.30;;;;;;5107954;28;20062;-59
2021/03/05 10:24:36;;;;;;;3.72;1.02;;;10.00;60.20;;;;;;5111983;28;20051;-59
2021/03/05 10:27:20;;;;;;;2.83;0.77;;;9.50;57.70;;;;;;5109781;28;20071;-58
2021/03/05 10:29:56;;;;;;;6.70;0.90;;;9.20;60.00;;;;;;5109909;28;20051;-59
2021/03/05 10:32:33;;;;;;;3.30;0.70;;;8.90;62.70;;;;;;5110272;28;20047;-59
2021/03/05 10:35:05;;;;;;;4.60;0.80;;;8.60;60.90;;;;;;5109454;28;20039;-59
2021/03/05 10:37:31;;;;;;;6.47;1.15;;;8.10;63.80;;;;;;5090878;28;20059;-59
2021/03/05 10:39:58;;;;;;;5.78;0.93;;;7.90;64.70;;;;;;5103771;28;20039;-59
2021/03/05 10:42:24;;;;;;;4.63;0.70;;;8.10;66.50;;;;;;5112758;28;20086;-59
2021/03/05 10:44:51;;;;;;;5.65;0.60;;;8.40;68.10;;;;;;5112419;28;20036;-58
2021/03/05 10:47:19;;;;;;;3.97;0.90;;;8.50;64.70;;;;;;5097565;28;20039;-59
2021/03/05 10:49:45;;;;;;;4.18;0.80;;;8.60;66.00;;;;;;5116522;28;20537;-58
2021/03/05 10:52:16;;;;;;;5.82;1.08;;;8.70;62.20;;;;;;5116707;28;20131;-59
2021/03/05 10:54:44;;;;;;;4.90;1.33;;;8.60;61.80;;;;;;5116668;28;20040;-59
2021/03/05 10:57:13;;;;;;;4.72;1.08;;;8.40;62.40;;;;;;5116347;28;20466;-58
2021/03/05 10:59:40;;;;;;;4.05;0.80;;;8.40;64.00;;;;;;5116774;28;20051;-58
2021/03/05 11:02:07;;;;;;;7.97;0.95;;;8.50;65.10;;;;;;5116369;28;20469;-58
2021/03/05 11:04:33;;;;;;;3.42;1.00;;;8.90;64.80;;;;;;5116171;28;20480;-59
2021/03/05 11:06:59;;;;;;;3.00;0.77;;;9.20;64.80;;;;;;5116354;28;20057;-59
2021/03/05 11:09:26;;;;;;;5.22;0.90;;;9.30;61.70;;;;;;5116103;28;20035;-58
2021/03/05 11:11:53;;;;;;;4.10;0.77;;;9.20;61.60;;;;;;5116365;28;20490;-59
2021/03/05 11:14:19;;;;;;;6.05;1.00;;;8.80;60.40;;;;;;5116142;28;20043;-59
2021/03/05 11:16:44;;;;;;;3.30;1.48;;;8.70;62.90;;;;;;5116175;28;20377;-58
2021/03/05 11:19:11;;;;;;;4.97;1.05;;;8.80;63.50;;;;;;5116027;28;20040;-59
2021/03/05 11:21:37;;;;;;;6.32;1.17;;;9.20;64.40;;;;;;5116026;28;20067;-59
2021/03/05 11:24:04;;;;;;;5.28;1.00;;;9.50;59.40;;;;;;5115918;28;20044;-59
2021/03/05 11:26:30;;;;;;;2.85;0.93;;;9.90;59.30;;;;;;5115986;28;20054;-59
2021/03/05 11:28:56;;;;;;;11.57;1.58;;;9.70;59.50;;;;;;5115550;28;20052;-59
2021/03/05 11:31:23;;;;;;;4.88;0.80;;;9.70;59.80;;;;;;5115905;28;20051;-59
2021/03/05 11:33:49;;;;;;;3.38;0.93;;;9.30;59.20;;;;;;5116115;28;20053;-59
2021/03/05 11:36:17;;;;;;;5.13;1.00;;;9.20;60.70;;;;;;5116026;28;20075;-58
2021/03/05 11:38:44;;;;;;;5.00;1.05;;;9.20;61.10;;;;;;5116194;28;20046;-58
2021/03/05 11:41:11;;;;;;;3.70;0.77;;;9.10;60.50;;;;;;5115727;28;20118;-59
2021/03/05 11:43:47;;;;;;;3.00;0.85;;;9.00;61.00;;;;;;5115685;28;20040;-59
2021/03/05 11:46:13;;;;;;;8.60;0.98;;;9.40;62.90;;;;;;5116160;28;20055;-59
2021/03/05 11:48:40;;;;;;;6.88;0.93;;;9.40;59.80;;;;;;5115599;28;20489;-59
2021/03/05 11:51:07;;;;;;;3.83;0.98;;;9.60;58.50;;;;;;5115852;28;20396;-59
2021/03/05 11:53:33;;;;;;;5.30;0.90;;;9.40;59.90;;;;;;5115861;28;20454;-58
2021/03/05 11:55:59;;;;;;;2.38;0.85;;;9.30;60.70;;;;;;5115460;28;20048;-59
2021/03/05 11:58:25;;;;;;;4.35;0.70;;;9.00;60.90;;;;;;5114924;28;20119;-59
2021/03/05 12:00:51;;;;;;;3.03;0.82;;;9.00;62.50;;;;;;5115410;28;20052;-59
2021/03/05 12:03:17;;;;;;;5.13;0.85;;;8.60;62.10;;;;;;5115251;28;20118;-59
2021/03/05 12:05:42;;;;;;;5.30;1.02;;;8.30;63.90;;;;;;5115414;28;20122;-59
2021/03/05 12:08:08;;;;;;;2.97;0.98;;;8.90;66.80;;;;;;5115231;28;20078;-59
2021/03/05 12:10:40;;;;;;;6.85;1.20;;;9.00;62.20;;;;;;5115239;28;20473;-59
2021/03/05 12:13:06;;;;;;;4.05;0.90;;;9.80;60.80;;;;;;5115313;28;20044;-59
2021/03/05 12:15:34;;;;;;;5.30;0.90;;;9.70;62.00;;;;;;5115052;28;20046;-59
2021/03/05 12:17:59;;;;;;;6.32;1.20;;;9.50;62.00;;;;;;5115343;28;20040;-59
2021/03/05 12:20:25;;;;;;;4.55;1.25;;;9.20;63.30;;;;;;5115014;28;20465;-59
2021/03/05 12:22:51;;;;;;;4.53;0.90;;;9.10;63.20;;;;;;5115033;28;20118;-59
2021/03/05 12:25:37;;;;;;;5.00;1.48;;;9.00;63.90;;;;;;5099882;28;20051;-59
2021/03/05 12:28:22;;;;;;;3.50;0.82;;;8.90;64.30;;;;;;5099947;28;20055;-59
2021/03/05 12:31:08;;;;;;;9.05;1.23;;;8.70;64.10;;;;;;5099657;28;20059;-58
2021/03/05 12:33:56;;;;;;;7.38;1.38;;;8.80;64.40;;;;;;5099427;28;20484;-59
2021/03/05 12:36:42;;;;;;;3.70;0.77;;;9.10;64.10;;;;;;5099277;28;20055;-59
2021/03/05 12:39:28;;;;;;;6.38;1.02;;;8.70;64.30;;;;;;5099457;28;20050;-59
2021/03/05 12:41:54;;;;;;;3.85;0.90;;;8.60;65.10;;;;;;5114263;28;20078;-58
2021/03/05 12:44:20;;;;;;;5.53;1.00;;;8.40;64.00;;;;;;5114610;28;20075;-59
2021/03/05 12:46:46;;;;;;;5.78;0.93;;;8.40;67.50;;;;;;5114604;28;20078;-59
2021/03/05 12:49:11;;;;;;;3.85;1.10;;;8.40;65.60;;;;;;5114786;28;20100;-59
2021/03/05 12:51:37;;;;;;;3.67;1.35;;;8.70;68.30;;;;;;5114350;28;20050;-59
2021/03/05 12:54:04;;;;;;;4.60;0.90;;;9.00;65.50;;;;;;5114374;28;20063;-59
2021/03/05 12:56:30;;;;;;;7.97;0.75;;;9.40;63.20;;;;;;5114164;28;20131;-58
2021/03/05 12:58:56;;;;;;;5.70;0.68;;;9.20;61.60;;;;;;5114345;28;20039;-58
2021/03/05 13:01:22;;;;;;;3.45;1.05;;;9.40;62.90;;;;;;5114096;28;20394;-59
2021/03/05 13:03:48;;;;;;;4.05;0.77;;;9.90;61.50;;;;;;5114223;28;20039;-59
2021/03/05 13:06:14;;;;;;;4.57;0.93;;;9.90;60.50;;;;;;5114243;28;20500;-59